EWG6W EDDB-EDDK
Flight info
| Callsign | EWG6W |
|---|---|
| Flight time | N/A |
| Altitude | 32000 |
| Route | KISUC1Q/06R KISUC Z20 MAG Z92 ABGUS DCT TOLTA DCT PODER Z189 RUNER/N0398F240 T858 KOPAG KOPAG1B |
| Aircraft | A320/M-SDE3FGHIRWY/LB1 |
Departure
| Time | 2026-05-07 11:35 |
|---|---|
| Airport | Berlin Brandenburg Airport (EDDB) |
Arrival
| Time | N/A |
|---|---|
| Airport | Cologne Bonn Airport (EDDK) |
| Time | Latitude | Longitude | Altitude | Speed | Heading |
|---|---|---|---|---|---|
| 2026-05-07 11:00 | 52.36290 | 13.50183 | 155 ft | 0 kts | 249° |
| 2026-05-07 11:24 | 52.36296 | 13.50208 | 155 ft | 3 kts | 243° |
| 2026-05-07 11:24 | 52.36306 | 13.50237 | 155 ft | 3 kts | 234° |
| 2026-05-07 11:24 | 52.36319 | 13.50262 | 155 ft | 3 kts | 223° |
| 2026-05-07 11:25 | 52.36334 | 13.50282 | 155 ft | 3 kts | 206° |
| 2026-05-07 11:25 | 52.36352 | 13.50293 | 155 ft | 3 kts | 181° |
| 2026-05-07 11:25 | 52.36367 | 13.50290 | 155 ft | 0 kts | 159° |
| 2026-05-07 11:27 | 52.36366 | 13.50291 | 155 ft | 2 kts | 159° |
| 2026-05-07 11:28 | 52.36320 | 13.50321 | 155 ft | 12 kts | 159° |
| 2026-05-07 11:28 | 52.36249 | 13.50366 | 155 ft | 10 kts | 159° |
| 2026-05-07 11:28 | 52.36170 | 13.50416 | 155 ft | 13 kts | 159° |
| 2026-05-07 11:28 | 52.36090 | 13.50466 | 154 ft | 12 kts | 159° |
| 2026-05-07 11:29 | 52.36015 | 13.50513 | 154 ft | 13 kts | 159° |
| 2026-05-07 11:29 | 52.35913 | 13.50578 | 154 ft | 16 kts | 159° |
| 2026-05-07 11:29 | 52.35825 | 13.50633 | 154 ft | 11 kts | 160° |
| 2026-05-07 11:29 | 52.35767 | 13.50598 | 154 ft | 9 kts | 239° |
| 2026-05-07 11:30 | 52.35731 | 13.50447 | 154 ft | 19 kts | 249° |
| 2026-05-07 11:30 | 52.35671 | 13.50195 | 154 ft | 26 kts | 249° |
| 2026-05-07 11:30 | 52.35610 | 13.49934 | 154 ft | 24 kts | 249° |
| 2026-05-07 11:30 | 52.35550 | 13.49684 | 154 ft | 23 kts | 249° |
| 2026-05-07 11:31 | 52.35495 | 13.49452 | 154 ft | 21 kts | 249° |
| 2026-05-07 11:31 | 52.35444 | 13.49239 | 154 ft | 19 kts | 249° |
| 2026-05-07 11:31 | 52.35398 | 13.49043 | 154 ft | 18 kts | 249° |
| 2026-05-07 11:31 | 52.35344 | 13.48814 | 154 ft | 23 kts | 249° |
| 2026-05-07 11:32 | 52.35223 | 13.48475 | 154 ft | 10 kts | 174° |
| 2026-05-07 11:32 | 52.35164 | 13.48513 | 154 ft | 9 kts | 157° |
| 2026-05-07 11:32 | 52.35115 | 13.48558 | 154 ft | 7 kts | 128° |
| 2026-05-07 11:33 | 52.35099 | 13.48629 | 154 ft | 6 kts | 103° |
| 2026-05-07 11:33 | 52.35090 | 13.48733 | 154 ft | 14 kts | 99° |
| 2026-05-07 11:33 | 52.35076 | 13.48901 | 154 ft | 16 kts | 96° |
| 2026-05-07 11:33 | 52.35066 | 13.49029 | 154 ft | 8 kts | 95° |
| 2026-05-07 11:34 | 52.35078 | 13.49104 | 154 ft | 15 kts | 69° |
| 2026-05-07 11:34 | 52.35191 | 13.49570 | 154 ft | 80 kts | 69° |
| 2026-05-07 11:34 | 52.35468 | 13.50738 | 155 ft | 138 kts | 69° |
| 2026-05-07 11:34 | 52.35851 | 13.52363 | 538 ft | 155 kts | 69° |
| 2026-05-07 11:35 | 52.36076 | 13.54065 | 1345 ft | 157 kts | 97° |
| 2026-05-07 11:35 | 52.35468 | 13.55550 | 2009 ft | 169 kts | 146° |
| 2026-05-07 11:35 | 52.34320 | 13.56080 | 2697 ft | 175 kts | 174° |
| 2026-05-07 11:35 | 52.33106 | 13.55959 | 3397 ft | 177 kts | 188° |